Time;durP1;ratioP1;P1;durP2;ratioP2;P2;SDS_P1;SDS_P2;PMS_P1;PMS_P2;Temp;Humidity;BMP_temperature;BMP_pressure;BME280_temperature;BME280_humidity;BME280_pressure;Samples;Min_cycle;Max_cycle;Signal;HPM_P1;HPM_P2
2022/12/01 00:00:41;;;;;;;197.60;75.43;;;;;;;4.06;100.00;102597.38;5053001;28;20056;-49
2022/12/01 00:03:06;;;;;;;194.80;72.03;;;;;;;4.08;100.00;102600.06;5052960;28;20017;-49
2022/12/01 00:05:31;;;;;;;192.95;73.45;;;;;;;4.08;100.00;102594.97;5052899;28;20102;-46
2022/12/01 00:07:58;;;;;;;195.77;74.85;;;;;;;4.08;100.00;102594.97;5053288;28;20059;-50
2022/12/01 00:10:27;;;;;;;198.55;76.45;;;;;;;4.09;100.00;102594.19;5052720;28;20049;-48
2022/12/01 00:12:53;;;;;;;205.43;78.43;;;;;;;4.10;100.00;102593.44;5052672;28;20025;-50
2022/12/01 00:15:19;;;;;;;214.00;78.40;;;;;;;4.10;100.00;102593.44;5053236;28;20033;-50
2022/12/01 00:17:46;;;;;;;218.88;77.47;;;;;;;4.09;100.00;102590.00;5052360;28;20029;-48
2022/12/01 00:20:12;;;;;;;219.80;81.43;;;;;;;4.11;100.00;102592.69;5052954;28;20021;-49
2022/12/01 00:22:41;;;;;;;227.77;80.93;;;;;;;4.12;100.00;102597.03;5052655;28;20020;-49
2022/12/01 00:25:06;;;;;;;221.70;80.15;;;;;;;4.12;100.00;102591.94;5052376;28;20107;-50
2022/12/01 00:27:32;;;;;;;224.93;81.00;;;;;;;4.12;100.00;102594.47;5052613;28;20107;-48
2022/12/01 00:29:57;;;;;;;231.88;81.07;;;;;;;4.13;100.00;102591.13;5053081;28;20033;-50
2022/12/01 00:32:22;;;;;;;222.65;79.28;;;;;;;4.14;100.00;102587.81;5052429;28;20376;-50
2022/12/01 00:34:47;;;;;;;232.90;79.53;;;;;;;4.12;100.00;102594.47;5052215;28;20028;-49
2022/12/01 00:37:13;;;;;;;231.95;80.30;;;;;;;4.13;100.00;102588.59;5052267;28;20059;-50
2022/12/01 00:39:38;;;;;;;243.32;84.13;;;;;;;4.11;100.00;102591.00;5052332;28;20119;-50
2022/12/01 00:42:03;;;;;;;233.48;82.63;;;;;;;4.12;100.00;102594.47;5052799;28;20531;-49
2022/12/01 00:44:29;;;;;;;243.50;81.20;;;;;;;4.11;100.00;102595.25;5052161;28;20171;-45
2022/12/01 00:46:54;;;;;;;252.80;84.85;;;;;;;4.11;100.00;102591.00;5052498;28;20029;-50
2022/12/01 00:49:19;;;;;;;246.35;85.13;;;;;;;4.11;100.00;102591.00;5052423;28;20028;-48
2022/12/01 00:51:45;;;;;;;256.70;84.03;;;;;;;4.11;100.00;102587.59;5051749;28;20086;-50
2022/12/01 00:54:10;;;;;;;258.83;85.78;;;;;;;4.10;100.00;102586.66;5052177;28;20032;-50
2022/12/01 00:56:35;;;;;;;251.30;84.25;;;;;;;4.09;100.00;102592.56;5052347;28;20075;-50
2022/12/01 00:59:00;;;;;;;271.25;84.47;;;;;;;4.10;100.00;102596.00;5052017;28;20025;-50
2022/12/01 01:01:26;;;;;;;259.33;83.35;;;;;;;4.11;100.00;102595.25;5052151;28;20045;-49
2022/12/01 01:03:51;;;;;;;250.05;81.32;;;;;;;4.09;100.00;102591.66;5052275;28;20056;-50
2022/12/01 01:06:16;;;;;;;245.30;81.18;;;;;;;4.09;100.00;102591.66;5052063;28;20025;-46
2022/12/01 01:08:41;;;;;;;249.32;80.90;;;;;;;4.08;100.00;102590.78;5051922;28;20035;-50
2022/12/01 01:11:08;;;;;;;241.15;80.85;;;;;;;4.08;100.00;102595.88;5052570;28;20028;-46
2022/12/01 01:13:34;;;;;;;235.20;81.40;;;;;;;4.08;100.00;102600.06;5051708;28;20061;-50
2022/12/01 01:16:12;;;;;;;240.13;80.05;;;;;;;4.09;100.00;102606.97;5052366;28;20017;-50
2022/12/01 01:18:38;;;;;;;227.05;76.32;;;;;;;4.07;100.00;102598.31;5052136;28;20036;-49
2022/12/01 01:21:09;;;;;;;228.32;77.78;;;;;;;4.07;100.00;102616.16;5051796;28;20029;-49
2022/12/01 01:23:35;;;;;;;224.63;75.30;;;;;;;4.08;100.00;102607.72;5051727;28;20025;-49
2022/12/01 01:26:07;;;;;;;222.70;75.03;;;;;;;4.07;100.00;102608.50;5052504;28;20120;-50
2022/12/01 01:28:32;;;;;;;231.13;76.25;;;;;;;4.06;100.00;102606.72;5051514;28;20468;-50
2022/12/01 01:30:58;;;;;;;227.70;72.85;;;;;;;4.04;100.00;102613.34;5052139;28;20052;-50
2022/12/01 01:33:23;;;;;;;223.90;75.78;;;;;;;4.04;100.00;102621.00;5051993;28;20427;-48
2022/12/01 01:35:48;;;;;;;237.40;79.43;;;;;;;4.05;100.00;102630.44;5051902;28;20025;-49
2022/12/01 01:38:14;;;;;;;240.57;77.63;;;;;;;4.05;100.00;102622.78;5051892;28;20059;-47
2022/12/01 01:40:46;;;;;;;241.98;77.13;;;;;;;4.06;100.00;102629.69;5051540;28;20108;-48
2022/12/01 01:43:14;;;;;;;221.38;78.47;;;;;;;4.07;100.00;102634.03;5052119;28;20063;-50
2022/12/01 01:45:40;;;;;;;228.13;76.88;;;;;;;4.06;100.00;102622.91;5051792;28;20541;-49
2022/12/01 01:48:06;;;;;;;243.52;78.53;;;;;;;4.07;100.00;102618.72;5051576;28;20026;-49
2022/12/01 01:50:32;;;;;;;232.65;77.20;;;;;;;4.07;100.00;102624.69;5051415;28;20469;-49
2022/12/01 01:53:01;;;;;;;232.70;76.45;;;;;;;4.07;100.00;102628.91;5051982;28;20025;-50
2022/12/01 01:55:28;;;;;;;238.18;77.53;;;;;;;4.07;100.00;102626.38;5051732;28;20040;-48
2022/12/01 01:57:53;;;;;;;234.23;78.32;;;;;;;4.08;100.00;102623.94;5051794;28;20029;-49
2022/12/01 02:00:19;;;;;;;243.13;77.53;;;;;;;4.08;100.00;102633.25;5051962;28;20493;-50
2022/12/01 02:02:47;;;;;;;255.90;82.80;;;;;;;4.07;100.00;102634.03;5051328;28;20029;-49
2022/12/01 02:05:22;;;;;;;244.07;77.90;;;;;;;4.08;100.00;102640.88;5055295;28;20486;-50
2022/12/01 02:07:50;;;;;;;240.40;81.60;;;;;;;4.07;100.00;102627.25;5055460;28;20025;-49
2022/12/01 02:10:21;;;;;;;;;;;;;;;4.18;100.00;102635.81;5055528;28;20028;-50
2022/12/01 02:12:46;;;;;;;259.80;86.45;;;;;;;4.08;100.00;102629.03;5054880;28;19920;-50
2022/12/01 02:15:29;;;;;;;272.65;87.22;;;;;;;4.08;100.00;102626.50;5055455;28;20028;-49
2022/12/01 02:18:28;;;;;;;247.68;83.20;;;;;;;4.09;100.00;102627.38;5054968;28;20037;-50
2022/12/01 02:21:09;;;;;;;250.65;84.00;;;;;;;4.09;100.00;102625.75;5055136;28;20151;-49
2022/12/01 02:23:40;;;;;;;266.60;82.45;;;;;;;4.07;100.00;102624.69;5054388;28;20079;-49
2022/12/01 02:26:08;;;;;;;263.55;86.38;;;;;;;4.07;100.00;102623.81;5055024;28;20037;-50
2022/12/01 02:29:09;;;;;;;264.73;83.45;;;;;;;4.09;100.00;102624.81;5055020;28;20053;-50
2022/12/01 02:31:44;;;;;;;254.13;83.55;;;;;;;4.06;100.00;102619.47;5054507;28;20021;-49
2022/12/01 02:34:31;;;;;;;265.27;84.32;;;;;;;4.06;100.00;102628.00;5054794;28;20124;-49
2022/12/01 02:37:07;;;;;;;261.50;81.75;;;;;;;4.07;100.00;102628.91;5054446;28;20599;-50
2022/12/01 02:39:50;;;;;;;250.45;84.75;;;;;;;4.08;100.00;102625.59;5054551;28;20056;-49
2022/12/01 02:45:16;;;;;;;235.90;79.72;;;;;;;4.05;100.00;102631.31;5054365;28;20059;-51
2022/12/01 02:47:44;;;;;;;245.98;82.45;;;;;;;4.05;100.00;102620.22;5054461;28;20112;-50
2022/12/01 02:50:10;;;;;;;254.10;81.28;;;;;;;4.04;100.00;102619.34;5054981;28;20028;-46
2022/12/01 02:52:37;;;;;;;247.60;82.53;;;;;;;4.05;100.00;102630.44;5054113;28;20017;-49
2022/12/01 02:55:03;;;;;;;245.10;86.07;;;;;;;4.06;100.00;102619.47;5054410;28;20040;-50
2022/12/01 02:57:29;;;;;;;245.45;81.80;;;;;;;4.04;100.00;102624.47;5054675;28;20025;-48
2022/12/01 02:59:55;;;;;;;245.48;84.13;;;;;;;4.04;100.00;102629.56;5053598;28;20492;-50
2022/12/01 03:02:27;;;;;;;235.90;81.28;;;;;;;4.04;100.00;102629.56;5054144;28;20060;-48
2022/12/01 03:05:04;;;;;;;238.48;81.72;;;;;;;4.04;100.00;102629.56;5053759;28;20226;-50
2022/12/01 03:08:12;;;;;;;242.73;82.30;;;;;;;4.07;100.00;102628.91;5054296;28;20103;-50
2022/12/01 03:10:56;;;;;;;230.60;79.93;;;;;;;4.07;100.00;102634.91;5053930;28;20048;-49
2022/12/01 03:13:36;;;;;;;241.45;81.35;;;;;;;4.06;100.00;102627.13;5053776;28;20033;-49
2022/12/01 03:16:21;;;;;;;235.13;83.55;;;;;;;4.06;100.00;102627.13;5052878;28;20029;-50
2022/12/01 03:18:55;;;;;;;233.43;81.35;;;;;;;4.04;100.00;102628.66;5054139;28;20104;-49
2022/12/01 03:21:24;;;;;;;236.57;79.00;;;;;;;4.05;100.00;102630.44;5054235;28;20386;-51
2022/12/01 03:24:04;;;;;;;233.95;82.22;;;;;;;4.04;100.00;102632.09;5053819;28;20025;-49
2022/12/01 03:26:31;;;;;;;233.27;80.88;;;;;;;4.04;100.00;102634.66;5053518;28;20617;-49
2022/12/01 03:29:21;;;;;;;239.60;84.20;;;;;;;4.06;100.00;102616.91;5053954;28;20031;-50
2022/12/01 03:31:51;;;;;;;235.55;84.40;;;;;;;4.03;100.00;102627.75;5053694;28;20037;-49
2022/12/01 03:34:25;;;;;;;238.48;85.18;;;;;;;4.04;100.00;102633.75;5053321;28;20035;-49
2022/12/01 03:36:57;;;;;;;232.80;82.03;;;;;;;4.04;100.00;102633.75;5053443;28;20029;-49
2022/12/01 03:39:27;;;;;;;234.23;82.35;;;;;;;4.02;100.00;102635.28;5053997;28;20020;-50
2022/12/01 03:42:02;;;;;;;232.25;84.10;;;;;;;4.04;100.00;102633.75;5052918;28;20412;-50
2022/12/01 03:44:38;;;;;;;248.75;84.28;;;;;;;4.03;100.00;102631.94;5053475;28;20602;-50
2022/12/01 03:47:07;;;;;;;242.95;84.65;;;;;;;4.01;100.00;102623.28;5053153;28;20062;-50
2022/12/01 03:49:33;;;;;;;236.38;83.25;;;;;;;4.02;100.00;102625.97;5053211;28;20039;-50
2022/12/01 03:52:13;;;;;;;219.52;79.68;;;;;;;4.03;100.00;102627.75;5053774;28;20017;-49
2022/12/01 03:54:46;;;;;;;241.85;85.35;;;;;;;4.01;100.00;102623.28;5052765;28;20037;-51
2022/12/01 03:57:16;;;;;;;227.35;79.38;;;;;;;4.01;100.00;102629.28;5053351;28;20047;-49
2022/12/01 03:59:43;;;;;;;231.90;81.40;;;;;;;3.99;100.00;102630.81;5053068;28;20025;-50
2022/12/01 04:02:09;;;;;;;233.70;83.93;;;;;;;4.00;100.00;102629.16;5052635;28;20045;-50
2022/12/01 04:04:34;;;;;;;221.43;79.68;;;;;;;4.00;100.00;102631.72;5052748;28;20032;-48
2022/12/01 04:06:59;;;;;;;230.38;82.22;;;;;;;4.00;100.00;102632.59;5053495;28;20095;-49
2022/12/01 04:09:25;;;;;;;227.70;79.50;;;;;;;3.99;100.00;102630.81;5052744;28;20029;-50
2022/12/01 04:12:57;;;;;;;229.13;81.13;;;;;;;4.00;100.00;102639.34;5052746;28;20483;-49
2022/12/01 04:14:44;;;;;;;221.20;77.95;;;;;;;4.00;100.00;102632.59;5047954;28;20427;-49
2022/12/01 04:17:09;;;;;;;230.45;80.13;;;;;;;4.00;100.00;102631.72;5052657;28;20100;-49
2022/12/01 04:19:35;;;;;;;224.93;78.95;;;;;;;4.00;100.00;102636.81;5052497;28;20021;-49
2022/12/01 04:22:00;;;;;;;231.43;82.32;;;;;;;4.01;100.00;102636.06;5053009;28;20025;-51
2022/12/01 04:24:25;;;;;;;218.63;79.65;;;;;;;3.99;100.00;102635.00;5052408;28;20025;-46
2022/12/01 04:26:50;;;;;;;235.88;83.28;;;;;;;3.99;100.00;102629.91;5052153;28;20116;-48
2022/12/01 04:29:16;;;;;;;219.70;81.40;;;;;;;3.98;100.00;102639.22;5052635;28;20029;-49
2022/12/01 04:31:41;;;;;;;223.73;81.30;;;;;;;3.99;100.00;102637.56;5052501;28;20108;-48
2022/12/01 04:34:08;;;;;;;231.57;79.78;;;;;;;4.00;100.00;102639.34;5052988;28;20423;-50
2022/12/01 04:36:34;;;;;;;229.20;83.32;;;;;;;3.99;100.00;102635.00;5052029;28;20044;-50
2022/12/01 04:39:00;;;;;;;239.10;81.15;;;;;;;3.99;100.00;102635.00;5052584;28;20029;-50
2022/12/01 04:41:26;;;;;;;230.98;82.20;;;;;;;3.99;100.00;102640.13;5052723;28;20411;-50
2022/12/01 04:43:53;;;;;;;231.68;83.40;;;;;;;3.97;100.00;102631.47;5052082;28;20025;-49
2022/12/01 04:46:19;;;;;;;235.00;83.80;;;;;;;3.97;100.00;102631.47;5052467;28;20067;-50
2022/12/01 04:48:44;;;;;;;236.50;83.43;;;;;;;3.97;100.00;102636.56;5052398;28;20025;-50
2022/12/01 04:51:09;;;;;;;232.30;82.32;;;;;;;3.97;100.00;102637.44;5052195;28;20476;-50
2022/12/01 04:53:35;;;;;;;228.20;81.05;;;;;;;3.97;100.00;102637.44;5052163;28;20033;-50
2022/12/01 04:56:02;;;;;;;226.30;80.22;;;;;;;3.95;100.00;102632.22;5052525;28;20449;-49
2022/12/01 04:58:28;;;;;;;227.13;83.10;;;;;;;3.96;100.00;102630.53;5052005;28;20460;-49
2022/12/01 05:00:54;;;;;;;238.05;81.20;;;;;;;3.96;100.00;102630.53;5051926;28;20052;-50
2022/12/01 05:03:19;;;;;;;239.85;86.53;;;;;;;3.97;100.00;102626.34;5052711;28;20025;-50
2022/12/01 05:05:44;;;;;;;235.48;83.32;;;;;;;3.95;100.00;102632.22;5051668;28;20075;-50
2022/12/01 05:08:10;;;;;;;231.98;82.70;;;;;;;3.95;100.00;102629.66;5052185;28;20028;-50
2022/12/01 05:10:36;;;;;;;234.05;82.40;;;;;;;3.94;100.00;102627.88;5051972;28;20025;-50
2022/12/01 05:13:02;;;;;;;224.32;82.78;;;;;;;3.94;100.00;102627.88;5052076;28;20086;-50
2022/12/01 05:15:27;;;;;;;219.57;82.47;;;;;;;3.95;100.00;102624.56;5052456;28;20128;-49
2022/12/01 05:17:53;;;;;;;226.00;80.93;;;;;;;3.96;100.00;102628.00;5052133;28;20111;-49
2022/12/01 05:23:08;;;;;;;226.07;83.22;;;;;;;3.95;100.00;102634.75;5052604;28;20049;-49
2022/12/01 05:25:33;;;;;;;226.63;83.28;;;;;;;3.95;100.00;102633.84;5051584;28;20025;-50
2022/12/01 05:27:59;;;;;;;227.98;82.25;;;;;;;3.92;100.00;102634.47;5052583;28;20033;-48
2022/12/01 05:30:24;;;;;;;215.95;77.40;;;;;;;3.93;100.00;102636.28;5052438;28;20025;-47
2022/12/01 05:32:49;;;;;;;218.40;79.80;;;;;;;3.95;100.00;102638.94;5051345;28;20086;-48
2022/12/01 05:35:15;;;;;;;220.63;80.63;;;;;;;3.95;100.00;102642.41;5052047;28;20067;-49
2022/12/01 05:37:40;;;;;;;222.25;82.60;;;;;;;3.95;100.00;102642.41;5051930;28;20025;-50
2022/12/01 05:40:06;;;;;;;237.10;83.68;;;;;;;3.95;100.00;102644.06;5055777;28;20071;-49
2022/12/01 05:42:31;;;;;;;234.20;84.07;;;;;;;3.94;100.00;102640.63;5055613;28;20400;-48
2022/12/01 05:44:57;;;;;;;240.80;82.90;;;;;;;3.94;100.00;102643.19;5056099;28;20021;-49
2022/12/01 05:47:22;;;;;;;245.52;86.13;;;;;;;3.94;100.00;102643.19;5055569;28;20395;-50
2022/12/01 05:49:47;;;;;;;235.15;85.18;;;;;;;3.94;100.00;102644.84;5055455;28;20114;-49
2022/12/01 05:52:13;;;;;;;247.75;84.50;;;;;;;3.93;100.00;102643.94;5055819;28;20025;-49
2022/12/01 05:54:38;;;;;;;235.40;85.50;;;;;;;3.92;100.00;102639.59;5055094;28;20033;-48
2022/12/01 05:57:03;;;;;;;252.60;88.22;;;;;;;3.91;100.00;102639.47;5055713;28;20020;-50
2022/12/01 05:59:28;;;;;;;258.20;88.05;;;;;;;3.92;100.00;102644.69;5055627;28;20064;-49
2022/12/01 06:01:54;;;;;;;243.27;86.13;;;;;;;3.92;100.00;102644.69;5054642;28;20489;-49
2022/12/01 06:04:19;;;;;;;265.83;87.28;;;;;;;3.92;100.00;102646.34;5055411;28;20033;-47
2022/12/01 06:06:44;;;;;;;263.67;87.55;;;;;;;3.92;100.00;102648.91;5055269;28;20373;-48
2022/12/01 06:09:11;;;;;;;251.10;85.72;;;;;;;3.92;100.00;102647.25;5055272;28;20128;-50
2022/12/01 06:11:36;;;;;;;269.80;88.68;;;;;;;3.92;100.00;102649.78;5055032;28;20108;-49
2022/12/01 06:14:01;;;;;;;265.85;89.50;;;;;;;3.91;100.00;102642.00;5055473;28;20206;-45
2022/12/01 06:16:26;;;;;;;258.95;86.43;;;;;;;3.92;100.00;102648.91;5054845;28;20024;-49
2022/12/01 06:18:52;;;;;;;258.85;88.72;;;;;;;3.93;100.00;102646.47;5054889;28;20029;-51
2022/12/01 06:21:17;;;;;;;259.92;86.43;;;;;;;3.92;100.00;102644.69;5055239;28;20411;-49
2022/12/01 06:23:42;;;;;;;252.32;87.95;;;;;;;3.93;100.00;102643.06;5054530;28;20036;-50
2022/12/01 06:26:08;;;;;;;254.40;85.05;;;;;;;3.92;100.00;102644.69;5055091;28;20025;-49
2022/12/01 06:28:33;;;;;;;251.18;83.53;;;;;;;3.94;100.00;102653.38;5054745;28;20111;-51
2022/12/01 06:30:58;;;;;;;249.23;86.32;;;;;;;3.94;100.00;102645.72;5054303;28;20013;-50
2022/12/01 06:33:24;;;;;;;262.35;85.97;;;;;;;3.95;100.00;102649.16;5055139;28;20025;-50
2022/12/01 06:36:05;;;;;;;265.85;86.60;;;;;;;3.94;100.00;102650.81;5054485;28;20038;-49
2022/12/01 06:38:32;;;;;;;258.00;84.13;;;;;;;3.95;100.00;102655.16;5054575;28;20384;-48
2022/12/01 06:40:58;;;;;;;271.60;87.45;;;;;;;3.95;100.00;102652.63;5055126;28;20052;-50
2022/12/01 06:43:23;;;;;;;268.23;84.22;;;;;;;3.95;100.00;102652.63;5054330;28;20041;-49
2022/12/01 06:45:49;;;;;;;279.45;87.40;;;;;;;3.97;100.00;102651.88;5054391;28;20052;-49
2022/12/01 06:48:14;;;;;;;255.30;83.80;;;;;;;3.97;100.00;102656.97;5054551;28;20024;-48
2022/12/01 06:50:40;;;;;;;267.23;87.78;;;;;;;3.97;100.00;102659.53;5053667;28;20063;-49
2022/12/01 06:53:05;;;;;;;250.07;82.75;;;;;;;3.98;100.00;102666.38;5054662;28;20129;-49
2022/12/01 06:55:30;;;;;;;254.02;82.07;;;;;;;3.98;100.00;102671.50;5054667;28;20488;-48
2022/12/01 06:57:59;;;;;;;251.25;84.38;;;;;;;3.97;100.00;102667.19;5054022;28;20461;-49
2022/12/01 07:00:25;;;;;;;260.98;86.75;;;;;;;3.97;100.00;102669.72;5054146;28;20051;-49
2022/12/01 07:02:50;;;;;;;249.63;83.05;;;;;;;3.97;100.00;102675.72;5054282;28;20037;-49
2022/12/01 07:05:15;;;;;;;243.88;83.85;;;;;;;3.98;100.00;102682.59;5053964;28;20380;-48
2022/12/01 07:07:41;;;;;;;249.55;83.43;;;;;;;3.99;100.00;102683.47;5054145;28;20460;-49
2022/12/01 07:10:08;;;;;;;253.20;81.93;;;;;;;3.98;100.00;102687.72;5054530;28;20029;-50
2022/12/01 07:12:33;;;;;;;250.57;83.13;;;;;;;3.98;100.00;102680.06;5053368;28;20397;-49
2022/12/01 07:14:58;;;;;;;245.25;82.38;;;;;;;3.98;100.00;102685.16;5053879;28;20477;-50
2022/12/01 07:17:24;;;;;;;246.80;81.80;;;;;;;4.00;100.00;102687.84;5054114;28;20544;-49
2022/12/01 07:19:49;;;;;;;245.90;83.55;;;;;;;4.01;100.00;102689.63;5053209;28;20136;-49
2022/12/01 07:22:14;;;;;;;226.73;82.20;;;;;;;4.01;100.00;102689.63;5053841;28;20021;-48
2022/12/01 07:24:40;;;;;;;228.25;79.97;;;;;;;4.01;100.00;102690.50;5053925;28;20031;-48
2022/12/01 07:27:05;;;;;;;239.57;81.30;;;;;;;4.01;100.00;102692.19;5053427;28;20033;-50
2022/12/01 07:29:31;;;;;;;244.32;85.45;;;;;;;4.02;100.00;102699.06;5053963;28;20024;-46
2022/12/01 07:31:56;;;;;;;238.63;81.57;;;;;;;4.03;100.00;102698.28;5053972;28;20443;-50
2022/12/01 07:34:21;;;;;;;234.63;82.28;;;;;;;4.02;100.00;102705.06;5053011;28;20111;-49
2022/12/01 07:36:47;;;;;;;231.25;81.72;;;;;;;4.03;100.00;102698.28;5053402;28;20460;-46
2022/12/01 07:39:12;;;;;;;242.40;83.25;;;;;;;4.05;100.00;102699.31;5053246;28;20025;-47
2022/12/01 07:41:37;;;;;;;234.05;80.80;;;;;;;4.04;100.00;102695.91;5053304;28;20174;-49
2022/12/01 07:44:02;;;;;;;229.70;81.53;;;;;;;4.06;100.00;102693.47;5053756;28;20103;-48
2022/12/01 07:46:28;;;;;;;234.48;81.18;;;;;;;4.06;100.00;102698.56;5053177;28;20044;-47
2022/12/01 07:48:54;;;;;;;234.63;81.57;;;;;;;4.07;100.00;102700.38;5053130;28;20101;-49
2022/12/01 07:51:21;;;;;;;232.07;83.38;;;;;;;4.08;100.00;102703.03;5053789;28;20044;-48
2022/12/01 07:53:48;;;;;;;228.05;84.88;;;;;;;4.09;100.00;102709.03;5052403;28;20460;-46
2022/12/01 07:56:14;;;;;;;226.02;81.65;;;;;;;4.12;100.00;102704.22;5053240;28;20028;-46
2022/12/01 07:58:40;;;;;;;224.73;81.32;;;;;;;4.11;100.00;102705.84;5053233;28;20040;-48
2022/12/01 08:01:13;;;;;;;230.32;83.78;;;;;;;4.13;100.00;102711.06;5052034;28;20048;-48
2022/12/01 08:03:40;;;;;;;237.00;86.35;;;;;;;4.15;100.00;102708.69;5052782;28;20465;-48
2022/12/01 08:06:06;;;;;;;235.30;81.50;;;;;;;4.16;100.00;102711.34;5053458;28;20017;-45
2022/12/01 08:08:33;;;;;;;219.35;82.68;;;;;;;4.18;100.00;102720.03;5052358;28;20590;-46
2022/12/01 08:11:01;;;;;;;228.65;81.40;;;;;;;4.21;100.00;102729.59;5053059;28;20036;-46
2022/12/01 08:13:27;;;;;;;221.00;80.78;;;;;;;4.20;100.00;102722.72;5053436;28;20076;-46
2022/12/01 08:15:52;;;;;;;236.93;82.93;;;;;;;4.20;100.00;102718.50;5052349;28;20484;-47
2022/12/01 08:18:17;;;;;;;223.52;82.80;;;;;;;4.21;100.00;102720.31;5052855;28;20371;-46
2022/12/01 08:20:43;;;;;;;222.07;80.30;;;;;;;4.21;100.00;102725.41;5053020;28;20041;-47
2022/12/01 08:23:08;;;;;;;213.45;81.47;;;;;;;4.23;100.00;102723.84;5052404;28;20472;-49
2022/12/01 08:25:33;;;;;;;218.68;80.75;;;;;;;4.27;100.00;102727.56;5052747;28;20056;-46
2022/12/01 08:28:00;;;;;;;219.40;80.70;;;;;;;4.28;100.00;102724.28;5053071;28;20115;-49
2022/12/01 08:30:25;;;;;;;221.88;82.65;;;;;;;4.32;100.00;102728.88;5052114;28;20028;-45
2022/12/01 08:32:55;;;;;;;227.30;83.57;;;;;;;4.35;100.00;102728.22;5052572;28;20029;-46
2022/12/01 08:35:21;;;;;;;216.10;81.50;;;;;;;4.37;100.00;102726.72;5053122;28;20028;-45
2022/12/01 08:37:47;;;;;;;206.45;80.85;;;;;;;4.39;100.00;102730.28;5051883;28;20112;-48
2022/12/01 08:40:12;;;;;;;211.52;81.25;;;;;;;4.41;100.00;102734.75;5052928;28;20021;-47
2022/12/01 08:42:38;;;;;;;211.70;82.65;;;;;;;4.44;100.00;102729.00;5051935;28;20031;-49
2022/12/01 08:45:04;;;;;;;213.15;80.97;;;;;;;4.49;100.00;102739.63;5052477;28;20395;-47
2022/12/01 08:47:29;;;;;;;209.10;80.97;;;;;;;4.49;100.00;102732.84;5052648;28;20025;-48
2022/12/01 08:49:54;;;;;;;198.07;77.13;;;;;;;4.51;100.00;102733.88;5052072;28;20549;-48
2022/12/01 08:52:20;;;;;;;201.82;80.07;;;;;;;4.52;100.00;102730.56;5052413;28;20039;-48
2022/12/01 08:54:45;;;;;;;213.20;81.88;;;;;;;4.54;100.00;102734.13;5052243;28;20444;-48
2022/12/01 08:57:11;;;;;;;214.20;80.82;;;;;;;4.60;100.00;102732.09;5051969;28;20083;-45
2022/12/01 08:59:36;;;;;;;206.63;84.28;;;;;;;4.61;100.00;102733.91;5051820;28;20029;-48
2022/12/01 09:02:02;;;;;;;209.65;80.65;;;;;;;4.64;100.00;102734.94;5052380;28;20049;-48
2022/12/01 09:04:28;;;;;;;199.77;77.30;;;;;;;4.68;100.00;102736.97;5052238;28;20492;-48
2022/12/01 09:06:55;;;;;;;215.30;80.75;;;;;;;4.72;100.00;102736.44;5052171;28;20025;-49
2022/12/01 09:09:27;;;;;;;209.95;80.38;;;;;;;4.74;100.00;102737.50;5052612;28;20024;-48
2022/12/01 09:11:53;;;;;;;201.02;77.97;;;;;;;4.75;100.00;102736.69;5051847;28;20091;-49
2022/12/01 09:14:19;;;;;;;205.52;80.15;;;;;;;4.75;100.00;102737.63;5056146;28;20024;-48
2022/12/01 09:16:48;;;;;;;204.10;81.63;;;;;;;4.77;100.00;102737.75;5056272;28;20029;-49
2022/12/01 09:19:14;;;;;;;204.90;78.32;;;;;;;4.80;100.00;102743.09;5055948;28;20048;-45
2022/12/01 09:21:42;;;;;;;207.07;81.65;;;;;;;4.83;100.00;102740.81;5056209;28;20054;-47
2022/12/01 09:24:09;;;;;;;203.40;80.32;;;;;;;4.84;100.00;102742.59;5056601;28;20028;-47
2022/12/01 09:26:34;;;;;;;205.77;78.07;;;;;;;4.87;100.00;102745.41;5055159;28;20033;-48
2022/12/01 09:29:03;;;;;;;192.75;76.70;;;;;;;4.95;100.00;102752.03;5056352;28;20025;-45
2022/12/01 09:31:29;;;;;;;204.30;79.88;;;;;;;5.02;100.00;102744.88;5056483;28;20029;-47
2022/12/01 09:33:56;;;;;;;200.68;79.43;;;;;;;5.04;100.00;102745.91;5054965;28;20032;-47
2022/12/01 09:36:22;;;;;;;198.68;80.70;;;;;;;5.08;100.00;102747.94;5056249;28;20525;-49
2022/12/01 09:38:47;;;;;;;205.60;77.32;;;;;;;5.07;100.00;102754.75;5055409;28;20025;-46
2022/12/01 09:41:23;;;;;;;203.68;79.57;;;;;;;5.09;100.00;102749.75;5055987;28;20174;-45
2022/12/01 09:44:14;;;;;;;199.45;77.43;;;;;;;5.13;100.00;102762.00;5055642;28;20611;-48
2022/12/01 09:47:01;;;;;;;207.80;79.00;;;;;;;5.20;100.00;102759.19;5055217;28;20064;-47
2022/12/01 09:49:43;;;;;;;192.73;77.65;;;;;;;5.22;100.00;102751.66;5055688;28;20120;-46
2022/12/01 09:52:12;;;;;;;192.30;73.65;;;;;;;5.26;100.00;102752.00;5055931;28;20407;-49
2022/12/01 09:54:38;;;;;;;202.13;78.70;;;;;;;5.32;100.00;102743.97;5054856;28;20033;-49
2022/12/01 09:57:03;;;;;;;197.52;77.20;;;;;;;5.37;100.00;102746.88;5056186;28;20025;-47
2022/12/01 09:59:34;;;;;;;203.25;76.22;;;;;;;5.42;100.00;102740.47;5055756;28;20017;-45
2022/12/01 10:02:20;;;;;;;205.95;78.63;;;;;;;5.36;100.00;102747.63;5054723;28;20053;-47
2022/12/01 10:04:48;;;;;;;189.57;77.60;;;;;;;5.39;100.00;102742.78;5055551;28;20025;-49
2022/12/01 10:07:19;;;;;;;200.25;75.45;;;;;;;5.33;100.00;102743.16;5055262;28;20029;-48
2022/12/01 10:09:50;;;;;;;199.95;75.75;;;;;;;5.30;100.00;102739.50;5054990;28;20091;-48
2022/12/01 10:12:19;;;;;;;209.57;79.78;;;;;;;5.31;100.00;102738.69;5055507;28;20511;-47
2022/12/01 10:14:46;;;;;;;201.25;78.32;;;;;;;5.36;100.00;102732.28;5054439;28;20037;-49
2022/12/01 10:17:26;;;;;;;202.13;76.33;;;;;;;5.34;100.00;102737.28;5055412;28;20020;-46
2022/12/01 10:19:57;;;;;;;201.77;76.97;;;;;;;5.53;100.00;102738.81;5055243;28;20048;-48
2022/12/01 10:22:51;;;;;;;197.10;80.30;;;;;;;5.63;100.00;102730.19;5054741;28;20021;-47
2022/12/01 10:25:25;;;;;;;197.52;78.43;;;;;;;5.68;100.00;102732.34;5045338;28;20128;-47
2022/12/01 10:28:14;;;;;;;196.93;77.50;;;;;;;5.87;100.00;102729.56;5054878;28;20424;-49
2022/12/01 10:30:51;;;;;;;194.18;75.05;;;;;;;6.02;100.00;102727.38;5054656;28;20025;-47
2022/12/01 10:33:34;;;;;;;196.73;74.60;;;;;;;6.14;100.00;102732.56;5055002;28;20121;-48
2022/12/01 10:35:59;;;;;;;197.77;79.38;;;;;;;6.22;100.00;102721.25;5054735;28;20059;-46
2022/12/01 10:38:29;;;;;;;198.68;74.10;;;;;;;6.28;100.00;102723.38;5054916;28;20106;-48
2022/12/01 10:40:58;;;;;;;191.25;75.13;;;;;;;6.30;100.00;102726.06;5054699;28;20391;-48
2022/12/01 10:43:46;;;;;;;190.48;75.97;;;;;;;6.39;100.00;102716.53;5054490;28;20031;-45
2022/12/01 10:46:23;;;;;;;;;;;;;;;6.51;100.00;102706.34;5055253;28;20369;-49
2022/12/01 10:48:54;;;;;;;182.77;72.18;;;;;;;6.37;100.00;102715.53;5054716;28;19935;-49
2022/12/01 10:51:21;;;;;;;195.85;75.20;;;;;;;6.44;100.00;102707.53;5053969;28;20431;-46
2022/12/01 10:53:47;;;;;;;175.73;71.40;;;;;;;6.45;100.00;102709.31;5054350;28;20472;-48
2022/12/01 10:56:17;;;;;;;192.77;74.18;;;;;;;6.42;100.00;102706.53;5054037;28;20469;-47
2022/12/01 10:58:45;;;;;;;188.93;71.22;;;;;;;6.42;99.72;102704.84;5053998;28;20386;-45
2022/12/01 11:01:17;;;;;;;182.95;71.47;;;;;;;6.50;100.00;102697.75;5054412;28;20400;-49
2022/12/01 11:03:47;;;;;;;177.85;68.78;;;;;;;6.52;100.00;102708.09;5053641;28;20420;-50
2022/12/01 11:06:13;;;;;;;181.32;68.97;;;;;;;6.49;100.00;102702.75;5054627;28;20021;-48
2022/12/01 11:08:50;;;;;;;185.75;72.28;;;;;;;6.47;100.00;102701.75;5054173;28;20021;-48
2022/12/01 11:11:27;;;;;;;190.07;72.95;;;;;;;6.39;100.00;102696.03;5054063;28;20025;-49
2022/12/01 11:13:55;;;;;;;174.10;66.80;;;;;;;6.34;100.00;102697.34;5053953;28;20111;-50